Wednesday, December 12, 2018, 11:54 PM EST
Back to Local

KAUG, Augusta State Airport

Location: Augusta, ME, United States Lat: 44.317
Local Time: 11:54 PM EST ( 4:54 GMT) Lon: -69.8
Time Zone: US/Eastern Elev: 351 ft

Show me the last for .
Show Decoded

2018-12-12 22:53 METAR KAUG 130353Z AUTO 32005KT 10SM CLR M12/M18 A3032 RMK AO2 SLP276 T11221178
                 =
2018-12-12 21:53 METAR KAUG 130253Z AUTO 34007KT 10SM CLR M12/M18 A3032 RMK AO2 SLP274 T11171178
                 51031 =
2018-12-12 20:53 METAR KAUG 130153Z AUTO 34007KT 10SM CLR M11/M17 A3029 RMK AO2 SLP265 T11111172
                 =
2018-12-12 19:53 METAR KAUG 130053Z AUTO 32006KT 10SM CLR M11/M17 A3026 RMK AO2 SLP255 T11061172
                 =
2018-12-12 18:53 METAR KAUG 122353Z AUTO 35007KT 10SM CLR M10/M17 A3023 RMK AO2 SLP243 T11001172
                 11050 21106 53037 =
2018-12-12 17:53 METAR KAUG 122253Z AUTO 35010KT 10SM CLR M09/M17 A3018 RMK AO2 SLP228 T10891172
                 =
2018-12-12 16:53 METAR KAUG 122153Z AUTO 36009KT 10SM CLR M08/M17 A3015 RMK AO2 SLP218 T10781167
                 =
2018-12-12 15:53 METAR KAUG 122053Z AUTO 34009KT 10SM CLR M07/M16 A3012 RMK AO2 SLP205 T10721161
                 53032 =
2018-12-12 14:53 METAR KAUG 121953Z AUTO 35018G22KT 10SM CLR M06/M16 A3008 RMK AO2 SLP194
                 T10611156 =
2018-12-12 13:53 METAR KAUG 121853Z AUTO 36012KT 10SM CLR M06/M14 A3004 RMK AO2 SLP180 T10561144
                 =
2018-12-12 12:53 METAR KAUG 121753Z AUTO 34014KT 10SM CLR M06/M13 A3002 RMK AO2 SLP173 60000
                 T10561133 11056 21089 53002 =
2018-12-12 11:53 METAR KAUG 121653Z AUTO 34014KT 10SM FEW040 M07/M13 A3001 RMK AO2 SLP170
                 T10671133 =
2018-12-12 10:53 METAR KAUG 121553Z AUTO 36015G20KT 9SM SCT022 M07/M12 A3001 RMK AO2 SLP169
                 T10721122 =
2018-12-12 10:46 METAR KAUG 121546Z AUTO 35011KT 9SM BKN022 M07/M12 A3001 RMK AO2 T10721117 =
2018-12-12 10:12 METAR KAUG 121512Z AUTO 01015G18KT 10SM FEW017 SCT030 M08/M12 A3002 RMK AO2
                 T10781122 =
2018-12-12 09:53 METAR KAUG 121453Z AUTO 02009KT 10SM FEW017 OVC028 M08/M11 A3001 RMK AO2
                 SNE10B26E36 SLP170 P0000 60000 T10781111 51026 =
2018-12-12 09:39 METAR KAUG 121439Z AUTO 03008KT 8SM FEW013 FEW022 OVC029 M08/M11 A3002 RMK AO2
                 SNE10B26E36 P0000 T10831111 =
2018-12-12 09:02 METAR KAUG 121402Z AUTO 02010KT 3SM -SN OVC033 M09/M12 A3000 RMK AO2 P0000
                 T10891117 =
2018-12-12 08:53 METAR KAUG 121353Z AUTO 01009KT 2 1/2SM -SN BKN033 BKN050 OVC090 M09/M12 A3000
                 RMK AO2 SLP165 P0000 T10891117 =
2018-12-12 08:13 METAR KAUG 121313Z AUTO 02008KT 3SM -SN BR BKN037 OVC085 M09/M11 A2998 RMK AO2
                 P0000 T10891111 =
2018-12-12 07:53 METAR KAUG 121253Z AUTO 03009KT 2 1/2SM -SN BR BKN033 OVC085 M09/M11 A2997 RMK
                 AO2 SLP155 P0000 T10891111 =
2018-12-12 07:19 METAR KAUG 121219Z AUTO 03010KT 2 1/2SM -SN BR BKN040 OVC085 M09/M11 A2995 RMK
                 AO2 P0000 T10891111 =
2018-12-12 06:53 METAR KAUG 121153Z AUTO 02008KT 5SM -SN BKN055 OVC090 M09/M12 A2994 RMK AO2
                 SNB1059 SLP144 P0000 60000 T10891117 11083 21111 53017 =
2018-12-12 05:53 METAR KAUG 121053Z AUTO 01007KT 10SM BKN060 OVC080 M08/M13 A2992 RMK AO2 SLP138
                 T10831128 =
2018-12-12 04:53 METAR KAUG 120953Z AUTO 01006KT 10SM OVC070 M09/M13 A2990 RMK AO2 SLP132
                 T10891133 =
2018-12-12 03:53 METAR KAUG 120853Z AUTO 32005KT 10SM FEW080 OVC090 M11/M13 A2989 RMK AO2 SLP128
                 T11061133 50001 =
2018-12-12 02:53 METAR KAUG 120753Z AUTO 33006KT 10SM CLR M11/M13 A2989 RMK AO2 SLP128 T11061133
                 =
2018-12-12 01:53 METAR KAUG 120653Z AUTO 33006KT 10SM CLR M11/M13 A2989 RMK AO2 SLP129 T11061128
                 =
2018-12-12 00:53 METAR KAUG 120553Z AUTO 32006KT 10SM CLR M10/M12 A2988 RMK AO2 SLP127 60000
                 T11001122 11061 21100 56017 =

Support USWX by starting your Amazon purchase here.